sensor_id;sensor_type;location;lat;lon;timestamp;P1;durP1;ratioP1;P2;durP2;ratioP2
19231;SDS011;9750;48.730;10.294;2022-07-23T00:00:09;6.25;;;5.65;;
19231;SDS011;9750;48.730;10.294;2022-07-23T00:02:37;6.68;;;5.82;;
19231;SDS011;9750;48.730;10.294;2022-07-23T00:05:05;6.10;;;5.60;;
19231;SDS011;9750;48.730;10.294;2022-07-23T00:07:32;6.57;;;5.97;;
19231;SDS011;9750;48.730;10.294;2022-07-23T00:10:00;7.82;;;6.15;;
19231;SDS011;9750;48.730;10.294;2022-07-23T00:12:27;6.53;;;6.03;;
19231;SDS011;9750;48.730;10.294;2022-07-23T00:14:56;8.10;;;6.28;;
19231;SDS011;9750;48.730;10.294;2022-07-23T00:17:23;7.10;;;6.50;;
19231;SDS011;9750;48.730;10.294;2022-07-23T00:19:51;7.43;;;6.72;;
19231;SDS011;9750;48.730;10.294;2022-07-23T00:22:19;9.55;;;6.72;;
19231;SDS011;9750;48.730;10.294;2022-07-23T00:24:46;7.85;;;7.05;;
19231;SDS011;9750;48.730;10.294;2022-07-23T00:27:14;7.38;;;6.65;;
19231;SDS011;9750;48.730;10.294;2022-07-23T00:29:41;7.90;;;7.22;;
19231;SDS011;9750;48.730;10.294;2022-07-23T00:32:10;7.30;;;6.60;;
19231;SDS011;9750;48.730;10.294;2022-07-23T00:34:37;7.45;;;6.85;;
19231;SDS011;9750;48.730;10.294;2022-07-23T00:37:05;7.75;;;7.05;;
19231;SDS011;9750;48.730;10.294;2022-07-23T00:39:32;7.10;;;6.50;;
19231;SDS011;9750;48.730;10.294;2022-07-23T00:41:59;7.47;;;6.88;;
19231;SDS011;9750;48.730;10.294;2022-07-23T00:44:27;7.78;;;7.07;;
19231;SDS011;9750;48.730;10.294;2022-07-23T00:46:56;7.50;;;6.78;;
19231;SDS011;9750;48.730;10.294;2022-07-23T00:49:27;7.00;;;6.40;;
19231;SDS011;9750;48.730;10.294;2022-07-23T00:55:17;7.32;;;6.70;;
19231;SDS011;9750;48.730;10.294;2022-07-23T00:57:44;7.13;;;6.38;;
19231;SDS011;9750;48.730;10.294;2022-07-23T01:00:13;7.75;;;7.05;;
19231;SDS011;9750;48.730;10.294;2022-07-23T01:02:41;6.97;;;6.30;;
19231;SDS011;9750;48.730;10.294;2022-07-23T01:05:10;6.65;;;6.15;;
19231;SDS011;9750;48.730;10.294;2022-07-23T01:07:38;6.13;;;5.60;;
19231;SDS011;9750;48.730;10.294;2022-07-23T01:10:07;6.60;;;6.10;;
19231;SDS011;9750;48.730;10.294;2022-07-23T01:12:48;6.38;;;5.78;;
19231;SDS011;9750;48.730;10.294;2022-07-23T01:15:15;6.43;;;5.82;;
19231;SDS011;9750;48.730;10.294;2022-07-23T01:17:43;6.63;;;6.03;;
19231;SDS011;9750;48.730;10.294;2022-07-23T01:20:11;6.28;;;5.57;;
19231;SDS011;9750;48.730;10.294;2022-07-23T01:22:40;6.32;;;5.72;;
19231;SDS011;9750;48.730;10.294;2022-07-23T01:25:08;5.75;;;5.25;;
19231;SDS011;9750;48.730;10.294;2022-07-23T01:27:36;5.80;;;5.15;;
19231;SDS011;9750;48.730;10.294;2022-07-23T01:30:03;5.70;;;5.22;;
19231;SDS011;9750;48.730;10.294;2022-07-23T01:32:43;5.70;;;5.20;;
19231;SDS011;9750;48.730;10.294;2022-07-23T01:35:10;6.10;;;5.60;;
19231;SDS011;9750;48.730;10.294;2022-07-23T01:37:38;5.82;;;5.32;;
19231;SDS011;9750;48.730;10.294;2022-07-23T01:40:07;6.25;;;5.65;;
19231;SDS011;9750;48.730;10.294;2022-07-23T01:42:34;5.70;;;5.28;;
19231;SDS011;9750;48.730;10.294;2022-07-23T01:45:03;6.38;;;5.65;;
19231;SDS011;9750;48.730;10.294;2022-07-23T01:47:31;7.00;;;6.25;;
19231;SDS011;9750;48.730;10.294;2022-07-23T01:49:58;6.40;;;5.80;;
19231;SDS011;9750;48.730;10.294;2022-07-23T01:52:25;6.18;;;5.60;;
19231;SDS011;9750;48.730;10.294;2022-07-23T01:54:53;6.35;;;5.75;;
19231;SDS011;9750;48.730;10.294;2022-07-23T01:57:21;6.68;;;6.18;;
19231;SDS011;9750;48.730;10.294;2022-07-23T01:59:49;7.28;;;5.78;;
19231;SDS011;9750;48.730;10.294;2022-07-23T02:02:16;6.65;;;6.05;;
19231;SDS011;9750;48.730;10.294;2022-07-23T02:04:44;6.45;;;5.95;;
19231;SDS011;9750;48.730;10.294;2022-07-23T02:07:11;6.47;;;5.88;;
19231;SDS011;9750;48.730;10.294;2022-07-23T02:09:38;6.75;;;6.15;;
19231;SDS011;9750;48.730;10.294;2022-07-23T02:12:06;6.32;;;5.82;;
19231;SDS011;9750;48.730;10.294;2022-07-23T02:14:35;6.82;;;6.22;;
19231;SDS011;9750;48.730;10.294;2022-07-23T02:17:02;6.22;;;5.72;;
19231;SDS011;9750;48.730;10.294;2022-07-23T02:19:29;6.22;;;5.72;;
19231;SDS011;9750;48.730;10.294;2022-07-23T02:21:57;6.70;;;6.10;;
19231;SDS011;9750;48.730;10.294;2022-07-23T02:24:24;6.30;;;5.80;;
19231;SDS011;9750;48.730;10.294;2022-07-23T02:26:51;6.82;;;6.30;;
19231;SDS011;9750;48.730;10.294;2022-07-23T02:29:19;8.10;;;6.13;;
19231;SDS011;9750;48.730;10.294;2022-07-23T02:31:48;6.88;;;6.28;;
19231;SDS011;9750;48.730;10.294;2022-07-23T02:34:15;6.43;;;5.82;;
19231;SDS011;9750;48.730;10.294;2022-07-23T02:36:42;7.15;;;6.65;;
19231;SDS011;9750;48.730;10.294;2022-07-23T02:39:10;6.90;;;6.20;;
19231;SDS011;9750;48.730;10.294;2022-07-23T02:41:37;6.95;;;6.32;;
19231;SDS011;9750;48.730;10.294;2022-07-23T02:44:05;6.65;;;6.05;;
19231;SDS011;9750;48.730;10.294;2022-07-23T02:46:32;6.60;;;6.00;;
19231;SDS011;9750;48.730;10.294;2022-07-23T02:49:01;6.30;;;5.80;;
19231;SDS011;9750;48.730;10.294;2022-07-23T02:51:29;7.10;;;6.40;;
19231;SDS011;9750;48.730;10.294;2022-07-23T02:53:57;6.43;;;5.88;;
19231;SDS011;9750;48.730;10.294;2022-07-23T02:56:24;6.90;;;6.22;;
19231;SDS011;9750;48.730;10.294;2022-07-23T02:58:51;8.55;;;6.65;;
19231;SDS011;9750;48.730;10.294;2022-07-23T03:01:19;6.78;;;6.20;;
19231;SDS011;9750;48.730;10.294;2022-07-23T03:03:46;6.65;;;6.00;;
19231;SDS011;9750;48.730;10.294;2022-07-23T03:06:15;6.95;;;6.35;;
19231;SDS011;9750;48.730;10.294;2022-07-23T03:08:42;7.90;;;7.10;;
19231;SDS011;9750;48.730;10.294;2022-07-23T03:11:10;7.70;;;7.00;;
19231;SDS011;9750;48.730;10.294;2022-07-23T03:13:37;7.80;;;7.10;;
19231;SDS011;9750;48.730;10.294;2022-07-23T03:16:05;7.65;;;6.95;;
19231;SDS011;9750;48.730;10.294;2022-07-23T03:18:33;7.95;;;7.15;;
19231;SDS011;9750;48.730;10.294;2022-07-23T03:21:00;8.20;;;7.40;;
19231;SDS011;9750;48.730;10.294;2022-07-23T03:23:29;7.90;;;7.25;;
19231;SDS011;9750;48.730;10.294;2022-07-23T03:25:56;7.70;;;7.03;;
19231;SDS011;9750;48.730;10.294;2022-07-23T03:28:24;7.20;;;6.55;;
19231;SDS011;9750;48.730;10.294;2022-07-23T03:30:51;8.00;;;7.40;;
19231;SDS011;9750;48.730;10.294;2022-07-23T03:33:20;8.05;;;7.25;;
19231;SDS011;9750;48.730;10.294;2022-07-23T03:35:48;8.98;;;7.57;;
19231;SDS011;9750;48.730;10.294;2022-07-23T03:38:16;8.18;;;7.38;;
19231;SDS011;9750;48.730;10.294;2022-07-23T03:40:45;8.90;;;8.00;;
19231;SDS011;9750;48.730;10.294;2022-07-23T03:43:12;8.52;;;7.72;;
19231;SDS011;9750;48.730;10.294;2022-07-23T03:45:39;8.80;;;7.68;;
19231;SDS011;9750;48.730;10.294;2022-07-23T03:48:07;9.43;;;8.15;;
19231;SDS011;9750;48.730;10.294;2022-07-23T03:50:34;8.23;;;7.53;;
19231;SDS011;9750;48.730;10.294;2022-07-23T03:53:02;8.43;;;7.55;;
19231;SDS011;9750;48.730;10.294;2022-07-23T03:55:30;9.05;;;8.15;;
19231;SDS011;9750;48.730;10.294;2022-07-23T03:57:58;8.55;;;7.70;;
19231;SDS011;9750;48.730;10.294;2022-07-23T04:00:26;8.88;;;8.07;;
19231;SDS011;9750;48.730;10.294;2022-07-23T04:02:53;8.63;;;7.93;;
19231;SDS011;9750;48.730;10.294;2022-07-23T04:05:20;9.20;;;8.20;;
19231;SDS011;9750;48.730;10.294;2022-07-23T04:07:48;8.38;;;7.68;;
19231;SDS011;9750;48.730;10.294;2022-07-23T04:10:15;8.43;;;7.55;;
19231;SDS011;9750;48.730;10.294;2022-07-23T04:12:43;8.20;;;7.50;;
19231;SDS011;9750;48.730;10.294;2022-07-23T04:15:12;8.88;;;7.97;;
19231;SDS011;9750;48.730;10.294;2022-07-23T04:17:39;7.80;;;7.10;;
19231;SDS011;9750;48.730;10.294;2022-07-23T04:20:07;9.07;;;8.27;;
19231;SDS011;9750;48.730;10.294;2022-07-23T04:22:35;8.77;;;7.95;;
19231;SDS011;9750;48.730;10.294;2022-07-23T04:25:03;8.60;;;7.85;;
19231;SDS011;9750;48.730;10.294;2022-07-23T04:27:30;8.93;;;8.02;;
19231;SDS011;9750;48.730;10.294;2022-07-23T04:29:58;8.70;;;7.80;;
19231;SDS011;9750;48.730;10.294;2022-07-23T04:32:27;8.50;;;7.70;;
19231;SDS011;9750;48.730;10.294;2022-07-23T04:34:54;8.40;;;7.70;;
19231;SDS011;9750;48.730;10.294;2022-07-23T04:37:22;8.93;;;8.13;;
19231;SDS011;9750;48.730;10.294;2022-07-23T04:39:49;8.38;;;7.60;;
19231;SDS011;9750;48.730;10.294;2022-07-23T04:42:16;8.48;;;7.75;;
19231;SDS011;9750;48.730;10.294;2022-07-23T04:44:44;9.60;;;7.93;;
19231;SDS011;9750;48.730;10.294;2022-07-23T04:47:11;9.35;;;8.48;;
19231;SDS011;9750;48.730;10.294;2022-07-23T04:49:40;8.95;;;8.15;;
19231;SDS011;9750;48.730;10.294;2022-07-23T04:52:07;9.50;;;8.60;;
19231;SDS011;9750;48.730;10.294;2022-07-23T04:54:35;8.55;;;7.85;;
19231;SDS011;9750;48.730;10.294;2022-07-23T04:57:02;8.88;;;8.10;;
19231;SDS011;9750;48.730;10.294;2022-07-23T04:59:30;8.77;;;7.90;;
19231;SDS011;9750;48.730;10.294;2022-07-23T05:01:57;9.15;;;8.05;;
19231;SDS011;9750;48.730;10.294;2022-07-23T05:04:24;10.20;;;8.50;;
19231;SDS011;9750;48.730;10.294;2022-07-23T05:06:53;9.63;;;8.63;;
19231;SDS011;9750;48.730;10.294;2022-07-23T05:09:21;9.32;;;8.52;;
19231;SDS011;9750;48.730;10.294;2022-07-23T05:11:48;9.13;;;8.27;;
19231;SDS011;9750;48.730;10.294;2022-07-23T05:14:15;8.75;;;8.00;;
19231;SDS011;9750;48.730;10.294;2022-07-23T05:16:43;9.40;;;8.60;;
19231;SDS011;9750;48.730;10.294;2022-07-23T05:19:10;9.02;;;8.23;;
19231;SDS011;9750;48.730;10.294;2022-07-23T05:21:37;9.52;;;8.50;;
19231;SDS011;9750;48.730;10.294;2022-07-23T05:24:07;8.52;;;7.80;;
19231;SDS011;9750;48.730;10.294;2022-07-23T05:26:34;8.82;;;8.02;;
19231;SDS011;9750;48.730;10.294;2022-07-23T05:29:02;8.88;;;8.13;;
19231;SDS011;9750;48.730;10.294;2022-07-23T05:31:29;8.88;;;8.07;;
19231;SDS011;9750;48.730;10.294;2022-07-23T05:33:56;8.68;;;7.88;;
19231;SDS011;9750;48.730;10.294;2022-07-23T05:36:24;8.27;;;7.57;;
19231;SDS011;9750;48.730;10.294;2022-07-23T05:38:51;8.45;;;7.65;;
19231;SDS011;9750;48.730;10.294;2022-07-23T05:41:20;12.02;;;7.72;;
19231;SDS011;9750;48.730;10.294;2022-07-23T05:43:47;7.85;;;7.25;;
19231;SDS011;9750;48.730;10.294;2022-07-23T05:46:15;7.40;;;6.70;;
19231;SDS011;9750;48.730;10.294;2022-07-23T05:48:42;8.05;;;7.25;;
19231;SDS011;9750;48.730;10.294;2022-07-23T05:51:11;7.78;;;7.05;;
19231;SDS011;9750;48.730;10.294;2022-07-23T05:53:38;9.93;;;7.30;;
19231;SDS011;9750;48.730;10.294;2022-07-23T05:56:06;8.10;;;7.28;;
19231;SDS011;9750;48.730;10.294;2022-07-23T05:58:35;8.07;;;7.25;;
19231;SDS011;9750;48.730;10.294;2022-07-23T06:01:02;7.18;;;6.57;;
19231;SDS011;9750;48.730;10.294;2022-07-23T06:03:29;7.57;;;6.88;;
19231;SDS011;9750;48.730;10.294;2022-07-23T06:05:57;7.63;;;6.93;;
19231;SDS011;9750;48.730;10.294;2022-07-23T06:08:24;7.90;;;7.20;;
19231;SDS011;9750;48.730;10.294;2022-07-23T06:10:52;9.30;;;7.88;;
19231;SDS011;9750;48.730;10.294;2022-07-23T06:13:19;7.80;;;7.10;;
19231;SDS011;9750;48.730;10.294;2022-07-23T06:15:48;7.20;;;6.60;;
19231;SDS011;9750;48.730;10.294;2022-07-23T06:18:15;7.20;;;6.50;;
19231;SDS011;9750;48.730;10.294;2022-07-23T06:20:43;7.35;;;6.65;;
19231;SDS011;9750;48.730;10.294;2022-07-23T06:23:10;7.20;;;6.60;;
19231;SDS011;9750;48.730;10.294;2022-07-23T06:25:38;7.13;;;6.40;;
19231;SDS011;9750;48.730;10.294;2022-07-23T06:28:06;6.25;;;5.75;;
19231;SDS011;9750;48.730;10.294;2022-07-23T06:30:33;6.38;;;5.65;;
19231;SDS011;9750;48.730;10.294;2022-07-23T06:33:02;6.90;;;6.20;;
19231;SDS011;9750;48.730;10.294;2022-07-23T06:35:29;6.75;;;6.15;;
19231;SDS011;9750;48.730;10.294;2022-07-23T06:37:58;6.32;;;5.78;;
19231;SDS011;9750;48.730;10.294;2022-07-23T06:40:26;6.75;;;6.05;;
19231;SDS011;9750;48.730;10.294;2022-07-23T06:45:24;5.93;;;5.35;;
19231;SDS011;9750;48.730;10.294;2022-07-23T06:47:51;6.95;;;6.35;;
19231;SDS011;9750;48.730;10.294;2022-07-23T06:50:20;6.80;;;6.20;;
19231;SDS011;9750;48.730;10.294;2022-07-23T06:52:48;6.47;;;5.88;;
19231;SDS011;9750;48.730;10.294;2022-07-23T06:55:15;6.43;;;5.88;;
19231;SDS011;9750;48.730;10.294;2022-07-23T06:57:42;6.43;;;5.93;;
19231;SDS011;9750;48.730;10.294;2022-07-23T07:00:10;6.85;;;6.00;;
19231;SDS011;9750;48.730;10.294;2022-07-23T07:02:38;6.57;;;5.97;;
19231;SDS011;9750;48.730;10.294;2022-07-23T07:05:05;7.47;;;6.13;;
19231;SDS011;9750;48.730;10.294;2022-07-23T07:07:35;6.70;;;6.10;;
19231;SDS011;9750;48.730;10.294;2022-07-23T07:10:02;6.53;;;5.85;;
19231;SDS011;9750;48.730;10.294;2022-07-23T07:12:30;6.88;;;6.15;;
19231;SDS011;9750;48.730;10.294;2022-07-23T07:14:58;5.70;;;5.20;;
19231;SDS011;9750;48.730;10.294;2022-07-23T07:17:25;6.65;;;6.05;;
19231;SDS011;9750;48.730;10.294;2022-07-23T07:19:53;5.93;;;5.43;;
19231;SDS011;9750;48.730;10.294;2022-07-23T07:22:20;6.40;;;5.80;;
19231;SDS011;9750;48.730;10.294;2022-07-23T07:24:49;7.30;;;6.40;;
19231;SDS011;9750;48.730;10.294;2022-07-23T07:27:16;5.95;;;5.45;;
19231;SDS011;9750;48.730;10.294;2022-07-23T07:29:44;5.97;;;5.40;;
19231;SDS011;9750;48.730;10.294;2022-07-23T07:32:11;6.25;;;5.10;;
19231;SDS011;9750;48.730;10.294;2022-07-23T07:34:38;5.78;;;5.20;;
19231;SDS011;9750;48.730;10.294;2022-07-23T07:37:06;6.18;;;5.43;;
19231;SDS011;9750;48.730;10.294;2022-07-23T07:39:33;5.43;;;5.03;;
19231;SDS011;9750;48.730;10.294;2022-07-23T07:42:02;6.10;;;5.60;;
19231;SDS011;9750;48.730;10.294;2022-07-23T07:44:30;6.57;;;6.07;;
19231;SDS011;9750;48.730;10.294;2022-07-23T07:46:57;5.97;;;5.00;;
19231;SDS011;9750;48.730;10.294;2022-07-23T07:49:24;5.93;;;5.35;;
19231;SDS011;9750;48.730;10.294;2022-07-23T07:51:52;5.90;;;5.40;;
19231;SDS011;9750;48.730;10.294;2022-07-23T07:54:19;5.70;;;5.20;;
19231;SDS011;9750;48.730;10.294;2022-07-23T07:56:46;5.57;;;5.07;;
19231;SDS011;9750;48.730;10.294;2022-07-23T07:59:15;5.60;;;5.10;;
19231;SDS011;9750;48.730;10.294;2022-07-23T08:01:43;6.20;;;5.65;;
19231;SDS011;9750;48.730;10.294;2022-07-23T08:04:10;6.03;;;5.53;;
19231;SDS011;9750;48.730;10.294;2022-07-23T08:06:37;6.22;;;5.63;;
19231;SDS011;9750;48.730;10.294;2022-07-23T08:09:05;6.60;;;5.50;;
19231;SDS011;9750;48.730;10.294;2022-07-23T08:11:32;6.22;;;5.70;;
19231;SDS011;9750;48.730;10.294;2022-07-23T08:14:00;5.88;;;5.38;;
19231;SDS011;9750;48.730;10.294;2022-07-23T08:16:29;5.78;;;5.25;;
19231;SDS011;9750;48.730;10.294;2022-07-23T08:18:56;7.35;;;6.10;;
19231;SDS011;9750;48.730;10.294;2022-07-23T08:21:24;5.40;;;4.95;;
19231;SDS011;9750;48.730;10.294;2022-07-23T08:23:51;6.25;;;5.70;;
19231;SDS011;9750;48.730;10.294;2022-07-23T08:26:18;6.72;;;5.85;;
19231;SDS011;9750;48.730;10.294;2022-07-23T08:28:46;6.50;;;5.90;;
19231;SDS011;9750;48.730;10.294;2022-07-23T08:31:13;6.72;;;6.20;;
19231;SDS011;9750;48.730;10.294;2022-07-23T08:33:43;7.60;;;6.60;;
19231;SDS011;9750;48.730;10.294;2022-07-23T08:36:11;6.80;;;6.20;;
19231;SDS011;9750;48.730;10.294;2022-07-23T08:38:38;6.68;;;6.00;;
19231;SDS011;9750;48.730;10.294;2022-07-23T08:41:06;6.15;;;5.65;;
19231;SDS011;9750;48.730;10.294;2022-07-23T08:43:34;5.88;;;5.32;;
19231;SDS011;9750;48.730;10.294;2022-07-23T08:46:02;5.70;;;5.30;;
19231;SDS011;9750;48.730;10.294;2022-07-23T08:48:31;5.85;;;5.35;;
19231;SDS011;9750;48.730;10.294;2022-07-23T08:51:03;6.60;;;6.00;;
19231;SDS011;9750;48.730;10.294;2022-07-23T08:53:32;6.93;;;6.22;;
19231;SDS011;9750;48.730;10.294;2022-07-23T08:56:00;6.80;;;6.20;;
19231;SDS011;9750;48.730;10.294;2022-07-23T08:58:29;7.18;;;6.57;;
19231;SDS011;9750;48.730;10.294;2022-07-23T09:00:57;7.10;;;6.47;;
19231;SDS011;9750;48.730;10.294;2022-07-23T09:03:25;6.93;;;6.43;;
19231;SDS011;9750;48.730;10.294;2022-07-23T09:05:53;7.25;;;6.63;;
19231;SDS011;9750;48.730;10.294;2022-07-23T09:08:24;7.03;;;6.40;;
19231;SDS011;9750;48.730;10.294;2022-07-23T09:11:00;7.03;;;6.32;;
19231;SDS011;9750;48.730;10.294;2022-07-23T09:13:32;6.15;;;5.65;;
19231;SDS011;9750;48.730;10.294;2022-07-23T09:16:04;6.57;;;6.07;;
19231;SDS011;9750;48.730;10.294;2022-07-23T09:18:34;7.88;;;6.50;;
19231;SDS011;9750;48.730;10.294;2022-07-23T09:23:52;6.60;;;5.97;;
19231;SDS011;9750;48.730;10.294;2022-07-23T09:26:27;7.07;;;6.38;;
19231;SDS011;9750;48.730;10.294;2022-07-23T09:28:59;6.95;;;6.30;;
19231;SDS011;9750;48.730;10.294;2022-07-23T09:31:34;7.00;;;6.30;;
19231;SDS011;9750;48.730;10.294;2022-07-23T09:34:09;6.82;;;6.25;;
19231;SDS011;9750;48.730;10.294;2022-07-23T09:36:39;6.53;;;5.85;;
19231;SDS011;9750;48.730;10.294;2022-07-23T09:39:09;6.50;;;5.90;;
19231;SDS011;9750;48.730;10.294;2022-07-23T09:41:38;6.43;;;5.90;;
19231;SDS011;9750;48.730;10.294;2022-07-23T09:44:10;6.78;;;6.18;;
19231;SDS011;9750;48.730;10.294;2022-07-23T09:46:39;6.40;;;5.88;;
19231;SDS011;9750;48.730;10.294;2022-07-23T09:49:12;6.30;;;5.80;;
19231;SDS011;9750;48.730;10.294;2022-07-23T09:51:53;6.60;;;6.03;;
19231;SDS011;9750;48.730;10.294;2022-07-23T09:54:26;6.68;;;6.18;;
19231;SDS011;9750;48.730;10.294;2022-07-23T09:56:56;6.65;;;6.15;;
19231;SDS011;9750;48.730;10.294;2022-07-23T09:59:26;6.85;;;6.25;;
19231;SDS011;9750;48.730;10.294;2022-07-23T10:01:56;6.50;;;6.00;;
19231;SDS011;9750;48.730;10.294;2022-07-23T10:04:25;6.70;;;6.10;;
19231;SDS011;9750;48.730;10.294;2022-07-23T10:06:54;6.85;;;6.25;;
19231;SDS011;9750;48.730;10.294;2022-07-23T10:09:26;7.93;;;7.07;;
19231;SDS011;9750;48.730;10.294;2022-07-23T10:11:57;7.40;;;6.65;;
19231;SDS011;9750;48.730;10.294;2022-07-23T10:14:32;7.20;;;6.60;;
19231;SDS011;9750;48.730;10.294;2022-07-23T10:17:00;10.40;;;6.60;;
19231;SDS011;9750;48.730;10.294;2022-07-23T10:19:28;7.07;;;6.57;;
19231;SDS011;9750;48.730;10.294;2022-07-23T10:21:57;7.82;;;7.15;;
19231;SDS011;9750;48.730;10.294;2022-07-23T10:24:35;7.88;;;7.28;;
19231;SDS011;9750;48.730;10.294;2022-07-23T10:27:19;7.80;;;7.20;;
19231;SDS011;9750;48.730;10.294;2022-07-23T10:30:05;8.68;;;7.47;;
19231;SDS011;9750;48.730;10.294;2022-07-23T10:32:37;7.82;;;7.13;;
19231;SDS011;9750;48.730;10.294;2022-07-23T10:35:15;8.02;;;7.30;;
19231;SDS011;9750;48.730;10.294;2022-07-23T10:37:54;7.50;;;6.90;;
19231;SDS011;9750;48.730;10.294;2022-07-23T10:40:29;7.43;;;6.82;;
19231;SDS011;9750;48.730;10.294;2022-07-23T10:42:58;7.45;;;6.80;;
19231;SDS011;9750;48.730;10.294;2022-07-23T10:45:28;7.60;;;6.88;;
19231;SDS011;9750;48.730;10.294;2022-07-23T10:48:11;7.00;;;6.43;;
19231;SDS011;9750;48.730;10.294;2022-07-23T10:50:40;7.95;;;7.15;;
19231;SDS011;9750;48.730;10.294;2022-07-23T10:57:03;6.97;;;6.38;;
19231;SDS011;9750;48.730;10.294;2022-07-23T11:02:49;8.18;;;7.55;;
19231;SDS011;9750;48.730;10.294;2022-07-23T11:05:18;7.60;;;7.00;;
19231;SDS011;9750;48.730;10.294;2022-07-23T11:10:51;7.53;;;6.80;;
19231;SDS011;9750;48.730;10.294;2022-07-23T11:13:31;7.90;;;7.30;;
19231;SDS011;9750;48.730;10.294;2022-07-23T11:16:04;7.93;;;7.13;;
19231;SDS011;9750;48.730;10.294;2022-07-23T11:21:44;8.15;;;7.45;;
19231;SDS011;9750;48.730;10.294;2022-07-23T11:24:13;7.72;;;7.10;;
19231;SDS011;9750;48.730;10.294;2022-07-23T11:26:46;7.70;;;6.97;;
19231;SDS011;9750;48.730;10.294;2022-07-23T11:32:30;7.90;;;7.20;;
19231;SDS011;9750;48.730;10.294;2022-07-23T11:35:05;8.13;;;7.15;;
19231;SDS011;9750;48.730;10.294;2022-07-23T11:37:47;7.57;;;6.88;;
19231;SDS011;9750;48.730;10.294;2022-07-23T11:40:15;7.93;;;7.22;;
19231;SDS011;9750;48.730;10.294;2022-07-23T11:42:53;7.30;;;6.68;;
19231;SDS011;9750;48.730;10.294;2022-07-23T11:45:24;7.45;;;6.85;;
19231;SDS011;9750;48.730;10.294;2022-07-23T11:47:56;7.65;;;7.07;;
19231;SDS011;9750;48.730;10.294;2022-07-23T11:50:23;7.63;;;7.00;;
19231;SDS011;9750;48.730;10.294;2022-07-23T11:52:51;8.25;;;7.55;;
19231;SDS011;9750;48.730;10.294;2022-07-23T11:55:19;8.00;;;7.25;;
19231;SDS011;9750;48.730;10.294;2022-07-23T11:57:47;8.15;;;7.40;;
19231;SDS011;9750;48.730;10.294;2022-07-23T12:00:15;7.68;;;6.97;;
19231;SDS011;9750;48.730;10.294;2022-07-23T12:02:45;7.45;;;6.82;;
19231;SDS011;9750;48.730;10.294;2022-07-23T12:05:14;7.65;;;6.95;;
19231;SDS011;9750;48.730;10.294;2022-07-23T12:07:43;7.97;;;7.38;;
19231;SDS011;9750;48.730;10.294;2022-07-23T12:10:15;6.90;;;6.32;;
19231;SDS011;9750;48.730;10.294;2022-07-23T12:12:46;7.88;;;7.07;;
19231;SDS011;9750;48.730;10.294;2022-07-23T12:15:16;7.47;;;6.88;;
19231;SDS011;9750;48.730;10.294;2022-07-23T12:17:46;7.88;;;7.18;;
19231;SDS011;9750;48.730;10.294;2022-07-23T12:20:16;7.63;;;7.03;;
19231;SDS011;9750;48.730;10.294;2022-07-23T12:22:46;7.72;;;7.13;;
19231;SDS011;9750;48.730;10.294;2022-07-23T12:25:15;7.60;;;6.93;;
19231;SDS011;9750;48.730;10.294;2022-07-23T12:27:44;8.02;;;7.35;;
19231;SDS011;9750;48.730;10.294;2022-07-23T12:30:15;8.27;;;6.88;;
19231;SDS011;9750;48.730;10.294;2022-07-23T12:32:44;7.55;;;6.95;;
19231;SDS011;9750;48.730;10.294;2022-07-23T12:35:14;7.55;;;6.95;;
19231;SDS011;9750;48.730;10.294;2022-07-23T12:37:43;7.80;;;7.20;;
19231;SDS011;9750;48.730;10.294;2022-07-23T12:40:18;7.28;;;6.70;;
19231;SDS011;9750;48.730;10.294;2022-07-23T12:42:47;7.82;;;6.80;;
19231;SDS011;9750;48.730;10.294;2022-07-23T12:45:16;7.97;;;7.38;;
19231;SDS011;9750;48.730;10.294;2022-07-23T12:47:55;7.72;;;7.13;;
19231;SDS011;9750;48.730;10.294;2022-07-23T12:50:38;8.32;;;7.57;;
19231;SDS011;9750;48.730;10.294;2022-07-23T12:53:12;8.57;;;7.63;;
19231;SDS011;9750;48.730;10.294;2022-07-23T12:55:41;8.30;;;7.50;;
19231;SDS011;9750;48.730;10.294;2022-07-23T12:58:11;7.60;;;6.90;;
19231;SDS011;9750;48.730;10.294;2022-07-23T13:00:56;7.53;;;6.88;;
19231;SDS011;9750;48.730;10.294;2022-07-23T13:03:28;7.70;;;7.03;;
19231;SDS011;9750;48.730;10.294;2022-07-23T13:05:58;8.20;;;7.60;;
19231;SDS011;9750;48.730;10.294;2022-07-23T13:08:27;7.72;;;7.03;;
19231;SDS011;9750;48.730;10.294;2022-07-23T13:10:55;7.15;;;6.47;;
19231;SDS011;9750;48.730;10.294;2022-07-23T13:13:23;8.02;;;7.32;;
19231;SDS011;9750;48.730;10.294;2022-07-23T13:15:52;7.78;;;7.05;;
19231;SDS011;9750;48.730;10.294;2022-07-23T13:18:20;8.05;;;7.30;;
19231;SDS011;9750;48.730;10.294;2022-07-23T13:20:49;7.32;;;6.72;;
19231;SDS011;9750;48.730;10.294;2022-07-23T13:23:17;6.88;;;6.28;;
19231;SDS011;9750;48.730;10.294;2022-07-23T13:25:45;7.35;;;6.75;;
19231;SDS011;9750;48.730;10.294;2022-07-23T13:28:13;7.00;;;6.50;;
19231;SDS011;9750;48.730;10.294;2022-07-23T13:30:41;6.43;;;5.93;;
19231;SDS011;9750;48.730;10.294;2022-07-23T13:33:10;7.30;;;6.80;;
19231;SDS011;9750;48.730;10.294;2022-07-23T13:35:37;8.43;;;7.40;;
19231;SDS011;9750;48.730;10.294;2022-07-23T13:38:06;7.55;;;6.95;;
19231;SDS011;9750;48.730;10.294;2022-07-23T13:40:34;7.57;;;6.95;;
19231;SDS011;9750;48.730;10.294;2022-07-23T13:43:04;7.30;;;6.68;;
19231;SDS011;9750;48.730;10.294;2022-07-23T13:45:32;7.40;;;6.80;;
19231;SDS011;9750;48.730;10.294;2022-07-23T13:47:59;7.47;;;6.75;;
19231;SDS011;9750;48.730;10.294;2022-07-23T13:50:27;7.97;;;6.60;;
19231;SDS011;9750;48.730;10.294;2022-07-23T13:56:10;7.47;;;6.75;;
19231;SDS011;9750;48.730;10.294;2022-07-23T13:58:38;7.03;;;6.38;;
19231;SDS011;9750;48.730;10.294;2022-07-23T14:01:05;7.10;;;6.45;;
19231;SDS011;9750;48.730;10.294;2022-07-23T14:03:33;6.82;;;6.32;;
19231;SDS011;9750;48.730;10.294;2022-07-23T14:06:00;7.45;;;6.85;;
19231;SDS011;9750;48.730;10.294;2022-07-23T14:08:28;6.78;;;6.28;;
19231;SDS011;9750;48.730;10.294;2022-07-23T14:10:55;6.32;;;5.72;;
19231;SDS011;9750;48.730;10.294;2022-07-23T14:13:24;7.80;;;7.10;;
19231;SDS011;9750;48.730;10.294;2022-07-23T14:15:51;6.85;;;6.20;;
19231;SDS011;9750;48.730;10.294;2022-07-23T14:18:19;6.35;;;5.85;;
19231;SDS011;9750;48.730;10.294;2022-07-23T14:20:46;7.80;;;7.20;;
19231;SDS011;9750;48.730;10.294;2022-07-23T14:23:14;7.07;;;6.28;;
19231;SDS011;9750;48.730;10.294;2022-07-23T14:25:41;6.95;;;6.45;;
19231;SDS011;9750;48.730;10.294;2022-07-23T14:28:09;6.68;;;6.07;;
19231;SDS011;9750;48.730;10.294;2022-07-23T14:30:38;7.50;;;6.20;;
19231;SDS011;9750;48.730;10.294;2022-07-23T14:33:05;8.80;;;6.32;;
19231;SDS011;9750;48.730;10.294;2022-07-23T14:35:33;6.63;;;5.90;;
19231;SDS011;9750;48.730;10.294;2022-07-23T14:38:00;6.18;;;5.68;;
19231;SDS011;9750;48.730;10.294;2022-07-23T14:40:28;7.03;;;5.88;;
19231;SDS011;9750;48.730;10.294;2022-07-23T14:42:55;5.80;;;5.40;;
19231;SDS011;9750;48.730;10.294;2022-07-23T14:45:23;6.90;;;6.10;;
19231;SDS011;9750;48.730;10.294;2022-07-23T14:47:52;6.60;;;6.00;;
19231;SDS011;9750;48.730;10.294;2022-07-23T14:50:20;7.00;;;6.40;;
19231;SDS011;9750;48.730;10.294;2022-07-23T14:52:47;7.30;;;5.88;;
19231;SDS011;9750;48.730;10.294;2022-07-23T14:55:15;6.70;;;6.10;;
19231;SDS011;9750;48.730;10.294;2022-07-23T14:57:43;8.20;;;6.00;;
19231;SDS011;9750;48.730;10.294;2022-07-23T15:00:11;6.57;;;6.07;;
19231;SDS011;9750;48.730;10.294;2022-07-23T15:02:39;7.15;;;6.55;;
19231;SDS011;9750;48.730;10.294;2022-07-23T15:05:08;6.75;;;6.15;;
19231;SDS011;9750;48.730;10.294;2022-07-23T15:07:36;6.30;;;5.80;;
19231;SDS011;9750;48.730;10.294;2022-07-23T15:10:03;6.03;;;5.63;;
19231;SDS011;9750;48.730;10.294;2022-07-23T15:12:31;6.68;;;6.18;;
19231;SDS011;9750;48.730;10.294;2022-07-23T15:14:59;7.22;;;6.55;;
19231;SDS011;9750;48.730;10.294;2022-07-23T15:17:27;6.50;;;6.00;;
19231;SDS011;9750;48.730;10.294;2022-07-23T15:19:54;6.95;;;6.35;;
19231;SDS011;9750;48.730;10.294;2022-07-23T15:22:23;6.88;;;6.28;;
19231;SDS011;9750;48.730;10.294;2022-07-23T15:24:50;6.20;;;5.60;;